Time;durP1;ratioP1;P1;durP2;ratioP2;P2;SDS_P1;SDS_P2;PMS_P1;PMS_P2;Temp;Humidity;BMP_temperature;BMP_pressure;BME280_temperature;BME280_humidity;BME280_pressure;Samples;Min_cycle;Max_cycle;Signal;HPM_P1;HPM_P2
2022/05/02 00:00:42;;;;;;;24.83;18.45;;;11.50;67.50;;;;;;5093686;28;20506;-79
2022/05/02 00:03:10;;;;;;;23.77;17.42;;;11.50;67.60;;;;;;5093042;28;20044;-79
2022/05/02 00:05:38;;;;;;;21.58;15.88;;;11.50;67.70;;;;;;5093103;28;20089;-79
2022/05/02 00:08:05;;;;;;;21.08;17.50;;;11.50;67.70;;;;;;5093017;28;20048;-78
2022/05/02 00:10:32;;;;;;;22.30;17.52;;;11.50;67.80;;;;;;5092823;28;20448;-79
2022/05/02 00:13:03;;;;;;;22.25;17.42;;;11.40;67.90;;;;;;5092731;28;20060;-79
2022/05/02 00:15:30;;;;;;;24.40;17.15;;;11.40;67.90;;;;;;5091559;28;20052;-79
2022/05/02 00:17:57;;;;;;;23.42;18.40;;;11.40;68.00;;;;;;5092696;28;20055;-79
2022/05/02 00:20:34;;;;;;;19.08;16.75;;;11.40;68.10;;;;;;5092654;28;20498;-79
2022/05/02 00:23:04;;;;;;;21.50;17.92;;;11.40;68.10;;;;;;5092542;28;20097;-81
2022/05/02 00:25:31;;;;;;;21.80;18.08;;;11.30;68.20;;;;;;5092699;28;20040;-81
2022/05/02 00:27:58;;;;;;;19.10;17.05;;;11.30;68.30;;;;;;5091261;28;20105;-80
2022/05/02 00:30:43;;;;;;;20.92;17.80;;;11.30;68.30;;;;;;5093089;28;20039;-81
2022/05/02 00:33:11;;;;;;;18.80;16.73;;;11.30;68.40;;;;;;5091310;28;20047;-80
2022/05/02 00:35:38;;;;;;;19.83;17.70;;;11.20;68.40;;;;;;5092403;28;20036;-80
2022/05/02 00:38:05;;;;;;;21.77;18.67;;;11.20;68.40;;;;;;5092213;28;20060;-79
2022/05/02 00:40:51;;;;;;;20.45;17.83;;;11.20;68.50;;;;;;5092363;28;20097;-80
2022/05/02 00:43:17;;;;;;;20.75;17.88;;;11.20;68.60;;;;;;5076441;28;20041;-80
2022/05/02 00:45:44;;;;;;;25.92;19.90;;;11.10;68.60;;;;;;5088794;28;20040;-79
2022/05/02 00:48:11;;;;;;;20.10;17.73;;;11.10;68.60;;;;;;5092109;28;20058;-80
2022/05/02 00:50:41;;;;;;;21.98;18.92;;;11.00;68.70;;;;;;5092080;28;20455;-81
2022/05/02 00:53:15;;;;;;;21.52;18.65;;;11.00;68.70;;;;;;5092076;28;20109;-81
2022/05/02 00:55:42;;;;;;;;;;;11.00;68.80;;;;;;5092319;28;20129;-78
2022/05/02 00:58:10;;;;;;;24.48;19.75;;;10.90;68.80;;;;;;5092112;28;19932;-81
2022/05/02 01:00:39;;;;;;;22.60;18.42;;;10.90;68.90;;;;;;5092669;28;20052;-81
2022/05/02 01:03:08;;;;;;;24.45;18.70;;;10.90;68.90;;;;;;5091977;28;20570;-81
2022/05/02 01:08:29;;;;;;;21.77;19.17;;;10.90;69.00;;;;;;5091713;28;20490;-81
2022/05/02 01:10:57;;;;;;;22.15;18.73;;;10.90;69.10;;;;;;5091487;28;20052;-80
2022/05/02 01:13:32;;;;;;;22.70;19.17;;;10.90;69.10;;;;;;5092041;28;20048;-80
2022/05/02 01:15:59;;;;;;;23.33;19.27;;;10.80;69.20;;;;;;5092041;28;20055;-80
2022/05/02 01:18:25;;;;;;;21.70;19.40;;;10.80;69.20;;;;;;5092347;28;20458;-79
2022/05/02 01:20:52;;;;;;;22.40;18.98;;;10.80;69.20;;;;;;5091712;28;20047;-79
2022/05/02 01:23:19;;;;;;;22.17;18.48;;;10.70;69.30;;;;;;5091581;28;20048;-79
2022/05/02 01:25:46;;;;;;;22.55;19.20;;;10.70;69.30;;;;;;5091362;28;20456;-78
2022/05/02 01:28:13;;;;;;;23.70;19.73;;;10.70;69.30;;;;;;5091829;28;20040;-81
2022/05/02 01:30:40;;;;;;;26.60;19.83;;;10.70;69.40;;;;;;5092310;28;20113;-81
2022/05/02 01:33:09;;;;;;;24.02;19.95;;;10.60;69.40;;;;;;5091837;28;20502;-80
2022/05/02 01:35:36;;;;;;;24.23;19.50;;;10.60;69.40;;;;;;5091548;28;20048;-81
2022/05/02 01:38:03;;;;;;;23.83;20.23;;;10.60;69.40;;;;;;5091308;28;20047;-80
2022/05/02 01:40:30;;;;;;;23.60;19.83;;;10.60;69.40;;;;;;5091379;28;20044;-81
2022/05/02 01:42:57;;;;;;;25.52;20.77;;;10.60;69.40;;;;;;5091635;28;20061;-81
2022/05/02 01:45:23;;;;;;;27.25;20.35;;;10.50;69.40;;;;;;5092017;28;20105;-80
2022/05/02 01:47:50;;;;;;;24.83;20.70;;;10.50;69.40;;;;;;5091248;28;20048;-79
2022/05/02 01:50:17;;;;;;;26.40;21.67;;;10.50;69.50;;;;;;5091549;28;20044;-80
2022/05/02 01:52:44;;;;;;;22.33;19.65;;;10.40;69.50;;;;;;5091564;28;20048;-80
2022/05/02 01:55:11;;;;;;;23.23;20.70;;;10.40;69.50;;;;;;5091209;28;20150;-80
2022/05/02 01:57:37;;;;;;;24.02;20.05;;;10.40;69.50;;;;;;5091988;28;20044;-80
2022/05/02 02:00:05;;;;;;;25.63;21.52;;;10.40;69.50;;;;;;5091411;28;20048;-80
2022/05/02 02:02:32;;;;;;;25.63;20.73;;;10.40;69.60;;;;;;5090111;28;20047;-79
2022/05/02 02:07:44;;;;;;;23.52;19.77;;;10.30;69.60;;;;;;5094970;28;20506;-81
2022/05/02 02:10:11;;;;;;;26.02;23.05;;;10.30;69.60;;;;;;5095193;28;20052;-80
2022/05/02 02:12:38;;;;;;;28.25;21.65;;;10.30;69.60;;;;;;5094765;28;20097;-80
2022/05/02 02:15:05;;;;;;;24.23;20.73;;;10.20;69.60;;;;;;5095199;28;20048;-80
2022/05/02 02:17:32;;;;;;;26.27;22.38;;;10.20;69.60;;;;;;5094993;28;20093;-79
2022/05/02 02:19:59;;;;;;;25.77;22.88;;;10.20;69.60;;;;;;5094935;28;20101;-79
2022/05/02 02:22:27;;;;;;;26.80;21.30;;;10.20;69.60;;;;;;5094701;28;20082;-81
2022/05/02 02:24:54;;;;;;;28.08;22.73;;;10.20;69.60;;;;;;5095139;28;20048;-80
2022/05/02 02:27:21;;;;;;;27.58;22.60;;;10.10;69.60;;;;;;5094303;28;20048;-81
2022/05/02 02:29:48;;;;;;;24.05;21.30;;;10.10;69.60;;;;;;5094915;28;20048;-80
2022/05/02 02:32:14;;;;;;;26.45;23.10;;;10.00;69.60;;;;;;5094875;28;20094;-80
2022/05/02 02:34:41;;;;;;;27.05;22.55;;;10.00;69.60;;;;;;5094809;28;20048;-80
2022/05/02 02:37:08;;;;;;;27.30;22.88;;;10.00;69.60;;;;;;5094498;28;20101;-80
2022/05/02 02:39:35;;;;;;;28.30;24.33;;;9.90;69.60;;;;;;5095148;28;20052;-80
2022/05/02 02:42:02;;;;;;;27.55;22.38;;;9.90;69.60;;;;;;5094674;28;20048;-80
2022/05/02 02:44:29;;;;;;;28.92;22.77;;;9.90;69.60;;;;;;5094467;28;20044;-79
2022/05/02 02:46:56;;;;;;;27.02;22.40;;;9.90;69.60;;;;;;5094576;28;20048;-79
2022/05/02 02:49:23;;;;;;;26.55;23.08;;;9.90;69.60;;;;;;5094663;28;20055;-79
2022/05/02 02:51:50;;;;;;;27.38;24.27;;;9.80;69.60;;;;;;5093200;28;20509;-80
2022/05/02 02:54:16;;;;;;;27.83;22.52;;;9.80;69.60;;;;;;5094394;28;20073;-80
2022/05/02 02:56:44;;;;;;;25.67;22.88;;;9.70;69.60;;;;;;5094306;28;20052;-79
2022/05/02 02:59:10;;;;;;;29.70;23.45;;;9.70;69.60;;;;;;5094235;28;20056;-80
2022/05/02 03:01:38;;;;;;;28.27;24.08;;;9.70;69.60;;;;;;5094410;28;20093;-80
2022/05/02 03:06:52;;;;;;;27.73;24.73;;;9.60;69.60;;;;;;5090775;28;20098;-80
2022/05/02 03:09:19;;;;;;;29.05;23.20;;;9.60;69.60;;;;;;5093326;28;20109;-80
2022/05/02 03:11:47;;;;;;;26.42;23.35;;;9.60;69.70;;;;;;5092935;28;20048;-79
2022/05/02 03:14:14;;;;;;;26.05;23.25;;;9.50;69.70;;;;;;5093968;28;20047;-81
2022/05/02 03:16:40;;;;;;;27.77;24.25;;;9.50;69.70;;;;;;5093835;28;20047;-81
2022/05/02 03:19:08;;;;;;;27.45;24.38;;;9.50;69.70;;;;;;5094056;28;20055;-81
2022/05/02 03:21:34;;;;;;;27.60;23.73;;;9.50;69.70;;;;;;5094175;28;20040;-80
2022/05/02 03:24:01;;;;;;;30.27;23.60;;;9.50;69.80;;;;;;5093735;28;20044;-80
2022/05/02 03:26:28;;;;;;;28.63;24.60;;;9.40;69.80;;;;;;5093678;28;20502;-80
2022/05/02 03:28:55;;;;;;;31.33;24.70;;;9.40;69.80;;;;;;5093751;28;20047;-80
2022/05/02 03:31:22;;;;;;;29.60;24.13;;;9.40;69.80;;;;;;5093787;28;20494;-80
2022/05/02 03:33:49;;;;;;;32.10;25.23;;;9.40;69.80;;;;;;5094148;28;20078;-80
2022/05/02 03:36:16;;;;;;;29.27;23.50;;;9.40;69.80;;;;;;5093098;28;20105;-81
2022/05/02 03:38:43;;;;;;;31.88;26.42;;;9.40;69.80;;;;;;5093315;28;20513;-80
2022/05/02 03:41:09;;;;;;;28.73;24.65;;;9.40;69.90;;;;;;5093472;28;20048;-81
2022/05/02 03:43:36;;;;;;;27.90;24.85;;;9.40;69.90;;;;;;5093392;28;20044;-80
2022/05/02 03:46:03;;;;;;;29.75;25.52;;;9.30;69.90;;;;;;5093448;28;20101;-81
2022/05/02 03:48:30;;;;;;;28.88;25.25;;;9.30;69.90;;;;;;5094039;28;20047;-80
2022/05/02 03:50:57;;;;;;;29.58;26.42;;;9.30;69.90;;;;;;5092985;28;20070;-80
2022/05/02 03:53:24;;;;;;;30.00;25.98;;;9.30;69.90;;;;;;5093163;28;20094;-80
2022/05/02 03:55:50;;;;;;;30.10;25.98;;;9.20;69.90;;;;;;5093230;28;20056;-81
2022/05/02 03:58:17;;;;;;;30.40;25.92;;;9.20;69.90;;;;;;5077243;28;20113;-81
2022/05/02 04:00:44;;;;;;;31.40;26.55;;;9.20;69.90;;;;;;5089323;28;20097;-81
2022/05/02 04:03:11;;;;;;;32.13;27.73;;;9.20;69.90;;;;;;5092948;28;20104;-81
2022/05/02 04:05:38;;;;;;;29.58;26.08;;;9.20;69.90;;;;;;5092684;28;20476;-81
2022/05/02 04:08:05;;;;;;;31.05;27.20;;;9.20;69.90;;;;;;5092875;28;20043;-80
2022/05/02 04:10:32;;;;;;;31.25;26.45;;;9.10;69.90;;;;;;5092926;28;20044;-79
2022/05/02 04:12:59;;;;;;;30.98;27.50;;;9.10;69.90;;;;;;5091885;28;20077;-80
2022/05/02 04:15:26;;;;;;;32.85;27.88;;;9.10;69.90;;;;;;5093308;28;20048;-80
2022/05/02 04:18:11;;;;;;;31.08;27.67;;;9.10;69.90;;;;;;5092598;28;20498;-80
2022/05/02 04:20:38;;;;;;;30.67;26.88;;;9.00;69.90;;;;;;5092631;28;20044;-80
2022/05/02 04:23:05;;;;;;;33.45;27.05;;;9.00;69.90;;;;;;5092464;28;20056;-79
2022/05/02 04:25:32;;;;;;;30.00;26.00;;;9.00;69.90;;;;;;5092712;28;20055;-79
2022/05/02 04:27:59;;;;;;;32.67;29.17;;;9.00;69.90;;;;;;5092534;28;20104;-79
2022/05/02 04:30:26;;;;;;;33.78;28.00;;;8.90;69.90;;;;;;5092753;28;20099;-80
2022/05/02 04:32:53;;;;;;;34.10;28.60;;;8.90;70.00;;;;;;5092002;28;20571;-79
2022/05/02 04:35:20;;;;;;;33.92;30.10;;;8.90;70.00;;;;;;5092456;28;20097;-79
2022/05/02 04:37:47;;;;;;;34.38;28.75;;;8.90;70.00;;;;;;5092490;28;20555;-79
2022/05/02 04:40:14;;;;;;;35.35;30.15;;;8.90;70.10;;;;;;5092464;28;20097;-80
2022/05/02 04:42:40;;;;;;;35.33;29.90;;;8.90;70.10;;;;;;5092882;28;20056;-80
2022/05/02 04:45:08;;;;;;;34.17;29.77;;;8.90;70.10;;;;;;5092382;28;20048;-79
2022/05/02 04:47:52;;;;;;;32.45;28.85;;;8.90;70.20;;;;;;5091933;28;20039;-81
2022/05/02 04:50:19;;;;;;;36.22;28.40;;;8.80;70.20;;;;;;5092274;28;20047;-81
2022/05/02 04:52:46;;;;;;;34.92;30.35;;;8.80;70.20;;;;;;5092359;28;20109;-81
2022/05/02 04:55:13;;;;;;;33.58;29.65;;;8.80;70.30;;;;;;5092150;28;20044;-81
2022/05/02 04:57:40;;;;;;;35.63;31.63;;;8.80;70.30;;;;;;5092751;28;20067;-80
2022/05/02 05:00:08;;;;;;;36.63;30.65;;;8.80;70.40;;;;;;5092157;28;20101;-81
2022/05/02 05:02:52;;;;;;;35.08;30.83;;;8.80;70.40;;;;;;5090579;28;20043;-80
2022/05/02 05:05:26;;;;;;;35.40;30.75;;;8.70;70.50;;;;;;5083394;28;20070;-79
2022/05/02 05:07:53;;;;;;;36.90;30.90;;;8.70;70.50;;;;;;5085377;28;20049;-80
2022/05/02 05:10:20;;;;;;;37.58;31.02;;;8.70;70.50;;;;;;5088954;28;20498;-80
2022/05/02 05:13:01;;;;;;;36.35;31.08;;;8.70;70.60;;;;;;5088410;28;20048;-82
2022/05/02 05:19:03;;;;;;;37.22;32.03;;;8.70;70.70;;;;;;5086953;28;20494;-81
2022/05/02 05:21:39;;;;;;;38.10;32.07;;;8.70;70.80;;;;;;5076444;28;20484;-80
2022/05/02 05:24:18;;;;;;;40.40;32.03;;;8.70;70.80;;;;;;5076200;28;20502;-81
2022/05/02 05:27:06;;;;;;;38.10;32.40;;;8.60;70.90;;;;;;5076435;28;20053;-81
2022/05/02 05:29:42;;;;;;;37.75;31.75;;;8.60;70.90;;;;;;5076600;28;20048;-81
2022/05/02 05:32:23;;;;;;;38.97;32.58;;;8.60;71.00;;;;;;5074027;28;20469;-80
2022/05/02 05:35:09;;;;;;;40.35;31.13;;;8.60;71.10;;;;;;5076188;28;20040;-80
2022/05/02 05:37:59;;;;;;;34.47;30.05;;;8.60;71.10;;;;;;5074233;28;20783;-80
2022/05/02 05:40:29;;;;;;;36.13;30.95;;;8.60;71.20;;;;;;5073134;28;20082;-80
2022/05/02 05:43:33;;;;;;;38.15;30.02;;;8.60;71.20;;;;;;5107341;28;20055;-80
2022/05/02 05:46:21;;;;;;;35.83;30.52;;;8.60;71.30;;;;;;5091051;28;20117;-80
2022/05/02 05:49:19;;;;;;;36.00;29.60;;;8.60;71.40;;;;;;5091604;28;20048;-80
2022/05/02 05:51:48;;;;;;;34.85;30.25;;;8.60;71.50;;;;;;5091485;28;20079;-80
2022/05/02 05:57:31;;;;;;;35.58;30.75;;;8.60;71.60;;;;;;5080544;28;20110;-80
2022/05/02 06:00:12;;;;;;;35.55;29.48;;;8.60;71.70;;;;;;5079529;28;20114;-79
2022/05/02 06:03:06;;;;;;;40.47;32.28;;;8.70;71.80;;;;;;5079872;28;20044;-80
2022/05/02 06:08:26;;;;;;;38.05;31.88;;;8.70;72.00;;;;;;5080087;28;20040;-79
2022/05/02 06:10:57;;;;;;;35.85;29.42;;;8.70;72.10;;;;;;5077204;28;20052;-82
2022/05/02 06:13:30;;;;;;;31.17;27.85;;;8.80;72.20;;;;;;5088921;28;20044;-81
2022/05/02 06:19:05;;;;;;;39.25;30.75;;;8.80;72.30;;;;;;5091433;28;20044;-80
2022/05/02 06:21:33;;;;;;;34.70;29.35;;;8.80;72.40;;;;;;5079526;28;20056;-81
2022/05/02 06:24:04;;;;;;;35.40;29.67;;;8.90;72.40;;;;;;5086182;28;20044;-81
2022/05/02 06:26:31;;;;;;;35.63;30.17;;;8.90;72.40;;;;;;5080779;28;20040;-81
2022/05/02 06:28:57;;;;;;;36.25;28.73;;;8.90;72.50;;;;;;5077040;28;20106;-82
2022/05/02 06:31:26;;;;;;;42.15;31.27;;;9.00;72.50;;;;;;5091137;28;20089;-81
2022/05/02 06:33:56;;;;;;;37.42;32.53;;;9.00;72.50;;;;;;5077539;28;20102;-82
2022/05/02 06:36:53;;;;;;;33.95;29.77;;;9.10;72.50;;;;;;5089632;28;20048;-80
2022/05/02 06:39:44;;;;;;;37.05;31.60;;;9.10;72.60;;;;;;5079894;28;20052;-80
2022/05/02 06:42:17;;;;;;;41.03;34.13;;;9.20;72.60;;;;;;5079063;28;20060;-80
2022/05/02 06:45:02;;;;;;;36.03;31.38;;;9.30;72.60;;;;;;5083169;28;20052;-80
2022/05/02 06:47:57;;;;;;;38.67;33.08;;;9.30;72.60;;;;;;5086665;28;20567;-80
2022/05/02 06:50:25;;;;;;;41.05;31.75;;;9.40;72.60;;;;;;5078816;28;20053;-80
2022/05/02 06:53:26;;;;;;;41.45;32.50;;;9.40;72.70;;;;;;5078408;28;20123;-79
2022/05/02 06:55:59;;;;;;;42.30;32.00;;;9.50;72.70;;;;;;5078909;28;20101;-81
2022/05/02 06:59:04;;;;;;;40.33;34.22;;;9.50;72.70;;;;;;5075386;28;20399;-81
2022/05/02 07:01:51;;;;;;;40.72;33.03;;;9.60;72.70;;;;;;5076290;28;20097;-82
2022/05/02 07:04:52;;;;;;;41.15;31.88;;;9.60;72.70;;;;;;5075028;28;20131;-81
2022/05/02 07:07:22;;;;;;;37.85;31.23;;;9.70;72.80;;;;;;5076145;28;20090;-81
2022/05/02 07:10:13;;;;;;;40.78;31.50;;;9.80;72.70;;;;;;5089823;28;20483;-81
2022/05/02 07:13:00;;;;;;;40.88;32.88;;;9.90;72.70;;;;;;5078417;28;20110;-80
2022/05/02 07:16:11;;;;;;;40.63;31.50;;;9.90;72.70;;;;;;5079382;28;20105;-80
2022/05/02 07:18:56;;;;;;;37.90;32.55;;;10.00;72.70;;;;;;5066145;28;20106;-80
2022/05/02 07:21:28;;;;;;;38.67;32.45;;;10.10;72.80;;;;;;5088830;28;20502;-81
2022/05/02 07:24:26;;;;;;;41.17;31.67;;;10.20;72.80;;;;;;5086916;28;20113;-82
2022/05/02 07:27:30;;;;;;;41.22;32.47;;;10.30;72.70;;;;;;5080801;28;20098;-82
2022/05/02 07:29:59;;;;;;;35.95;31.45;;;10.40;72.70;;;;;;5078280;28;20049;-81
2022/05/02 07:32:27;;;;;;;36.42;30.88;;;10.40;72.60;;;;;;5078514;28;20040;-82
2022/05/02 07:34:55;;;;;;;41.33;30.90;;;10.50;72.60;;;;;;5078328;28;20112;-79
2022/05/02 07:37:23;;;;;;;37.70;31.30;;;10.60;72.60;;;;;;5075377;28;20045;-80
2022/05/02 07:40:10;;;;;;;36.65;30.15;;;10.60;72.50;;;;;;5089505;28;20567;-79
2022/05/02 07:42:37;;;;;;;34.65;28.98;;;10.70;72.40;;;;;;5077768;28;20109;-80
2022/05/02 07:45:10;;;;;;;35.97;28.52;;;10.80;72.20;;;;;;5078307;28;20118;-79
2022/05/02 07:47:40;;;;;;;38.78;29.73;;;10.90;72.20;;;;;;5078074;28;20045;-81
2022/05/02 07:50:07;;;;;;;33.88;27.58;;;11.00;72.00;;;;;;5077923;28;20048;-82
2022/05/02 07:52:39;;;;;;;34.67;27.90;;;11.10;71.90;;;;;;5075661;28;20480;-80
2022/05/02 07:55:09;;;;;;;31.85;26.75;;;11.10;71.70;;;;;;5096124;28;20090;-81
2022/05/02 07:57:38;;;;;;;30.75;26.48;;;11.20;71.50;;;;;;5077142;28;20082;-81
2022/05/02 08:00:08;;;;;;;29.98;25.20;;;11.30;71.30;;;;;;5077446;28;20056;-80
2022/05/02 08:02:35;;;;;;;31.75;24.75;;;11.40;71.10;;;;;;5079371;28;20044;-81
2022/05/02 08:05:05;;;;;;;31.98;24.35;;;11.50;70.90;;;;;;5076685;28;20105;-81
2022/05/02 08:07:38;;;;;;;28.38;24.05;;;11.60;70.70;;;;;;5074879;28;20056;-81
2022/05/02 08:10:46;;;;;;;33.13;22.65;;;11.70;70.40;;;;;;5074591;28;20805;-81
2022/05/02 08:13:13;;;;;;;25.75;22.98;;;11.90;70.20;;;;;;5089234;28;20044;-80
2022/05/02 08:16:02;;;;;;;28.48;21.77;;;11.90;69.80;;;;;;5077336;28;20102;-81
2022/05/02 08:18:58;;;;;;;29.17;20.75;;;12.10;69.50;;;;;;5088444;28;20440;-80
2022/05/02 08:21:37;;;;;;;25.58;20.77;;;12.20;69.20;;;;;;5087903;28;20044;-80
2022/05/02 08:27:50;;;;;;;24.85;18.83;;;12.40;68.40;;;;;;5087628;28;20161;-80
2022/05/02 08:30:23;;;;;;;24.05;19.15;;;12.50;68.00;;;;;;5086663;28;20102;-80
2022/05/02 08:33:06;;;;;;;23.13;18.60;;;12.70;67.70;;;;;;5080286;28;20056;-79
2022/05/02 08:35:45;;;;;;;25.73;18.88;;;12.80;67.40;;;;;;5077135;28;20048;-80
2022/05/02 08:38:31;;;;;;;22.38;17.17;;;12.90;66.90;;;;;;5079666;28;20101;-81
2022/05/02 08:41:20;;;;;;;19.58;17.10;;;13.00;66.40;;;;;;5087238;28;20448;-79
2022/05/02 08:44:22;;;;;;;21.48;16.15;;;13.10;66.10;;;;;;5076092;28;20101;-79
2022/05/02 08:47:07;;;;;;;18.30;15.25;;;13.20;65.60;;;;;;5076535;28;20093;-80
2022/05/02 08:50:01;;;;;;;18.02;15.10;;;13.30;65.20;;;;;;5074707;28;20041;-80
2022/05/02 08:53:03;;;;;;;25.60;15.65;;;13.40;64.90;;;;;;5071636;28;20506;-80
2022/05/02 08:55:42;;;;;;;19.90;14.27;;;13.60;64.40;;;;;;5073553;28;20052;-79
2022/05/02 08:58:43;;;;;;;20.42;14.73;;;13.70;64.00;;;;;;5073631;28;20052;-79
2022/05/02 09:01:29;;;;;;;19.25;14.02;;;13.80;63.70;;;;;;5088657;28;20052;-79
2022/05/02 09:04:46;;;;;;;15.00;12.65;;;13.90;63.30;;;;;;5087694;28;20044;-79
2022/05/02 09:07:53;;;;;;;20.25;13.00;;;14.00;62.80;;;;;;5072794;28;20055;-79
2022/05/02 09:10:42;;;;;;;16.30;12.85;;;14.20;62.40;;;;;;5073676;28;20101;-79
2022/05/02 09:13:29;;;;;;;22.42;11.80;;;14.30;61.90;;;;;;5088405;28;20052;-78
2022/05/02 09:16:14;;;;;;;15.10;12.00;;;14.40;61.50;;;;;;5085973;28;20048;-79
2022/05/02 09:19:05;;;;;;;14.55;10.90;;;14.50;61.00;;;;;;5076265;28;20514;-79
2022/05/02 09:21:49;;;;;;;13.20;10.77;;;14.60;60.60;;;;;;5076278;28;20094;-79
2022/05/02 09:24:58;;;;;;;15.02;10.57;;;14.70;60.20;;;;;;5085399;28;20081;-79
2022/05/02 09:27:43;;;;;;;14.50;10.73;;;14.80;59.80;;;;;;5090097;28;20093;-79
2022/05/02 09:30:27;;;;;;;13.10;9.57;;;14.90;59.50;;;;;;5087269;28;20089;-78
2022/05/02 09:33:47;;;;;;;12.05;9.45;;;15.00;59.10;;;;;;5078784;28;20583;-79
2022/05/02 09:36:33;;;;;;;13.75;10.15;;;15.10;58.80;;;;;;5028786;28;20104;-80
2022/05/02 09:39:12;;;;;;;12.35;9.68;;;15.20;58.50;;;;;;5023442;28;20053;-79
2022/05/02 09:42:12;;;;;;;13.32;9.13;;;15.30;58.20;;;;;;5010631;28;20092;-79
2022/05/02 09:51:56;;;;;;;13.82;8.80;;;15.60;57.20;;;;;;5024140;28;20052;-80
2022/05/02 09:58:05;;;;;;;13.82;7.82;;;15.80;56.40;;;;;;5024588;28;20152;-79
2022/05/02 10:04:12;;;;;;;11.27;8.00;;;16.00;55.80;;;;;;5028315;28;20137;-80
2022/05/02 10:06:52;;;;;;;13.15;9.20;;;16.10;55.60;;;;;;4998233;28;20547;-79
2022/05/02 10:09:58;;;;;;;12.57;7.75;;;16.20;55.10;;;;;;5017313;28;20116;-79
2022/05/02 10:12:42;;;;;;;9.93;7.45;;;16.30;54.80;;;;;;5015931;28;20105;-80
2022/05/02 10:15:33;;;;;;;10.75;7.20;;;16.40;54.40;;;;;;5016851;28;20050;-79
2022/05/02 10:18:11;;;;;;;11.43;6.78;;;16.40;54.20;;;;;;5018141;28;20601;-79
2022/05/02 10:21:07;;;;;;;13.73;7.00;;;16.50;54.00;;;;;;5016371;28;20459;-79
2022/05/02 10:23:43;;;;;;;11.32;6.57;;;16.50;53.80;;;;;;5016872;28;20045;-79
2022/05/02 10:26:36;;;;;;;9.90;6.60;;;16.70;53.50;;;;;;5012208;28;20058;-80
2022/05/02 10:29:34;;;;;;;11.45;7.55;;;16.70;53.30;;;;;;5016028;28;20539;-79
2022/05/02 10:32:20;;;;;;;12.23;6.97;;;16.80;53.10;;;;;;5015849;28;20093;-79
2022/05/02 10:34:52;;;;;;;10.98;8.25;;;16.90;52.60;;;;;;5003229;28;20049;-80
2022/05/02 10:37:27;;;;;;;9.75;6.50;;;16.90;52.40;;;;;;5015525;28;20041;-79
2022/05/02 10:40:08;;;;;;;10.27;6.55;;;16.90;52.20;;;;;;5028495;28;20057;-79
2022/05/02 10:42:35;;;;;;;9.43;6.20;;;17.10;51.90;;;;;;5025393;28;21303;-79
2022/05/02 10:45:08;;;;;;;10.45;6.28;;;17.10;51.80;;;;;;5079021;28;20506;-79
2022/05/02 10:50:27;;;;;;;8.13;6.25;;;17.30;51.40;;;;;;5078716;28;20085;-79
2022/05/02 10:53:18;;;;;;;10.23;6.70;;;17.30;51.10;;;;;;5076475;28;20052;-79
2022/05/02 10:56:07;;;;;;;9.13;6.30;;;17.40;51.00;;;;;;5088643;28;20048;-79
2022/05/02 10:58:34;;;;;;;14.00;6.65;;;17.40;50.80;;;;;;5076451;28;20505;-81
2022/05/02 11:01:32;;;;;;;11.05;7.18;;;17.50;50.70;;;;;;5090813;28;20101;-80
2022/05/02 11:03:59;;;;;;;9.20;6.18;;;17.50;50.50;;;;;;5090162;28;20059;-80
2022/05/02 11:07:04;;;;;;;10.07;6.43;;;17.60;50.30;;;;;;5078461;28;20470;-80
2022/05/02 11:10:03;;;;;;;11.13;6.28;;;17.70;50.10;;;;;;5078584;28;20060;-80
2022/05/02 11:12:41;;;;;;;8.82;5.50;;;17.70;50.00;;;;;;5030095;28;20053;-80
2022/05/02 11:15:16;;;;;;;8.10;6.00;;;17.80;49.90;;;;;;5026291;28;20455;-80
2022/05/02 11:21:43;;;;;;;9.32;5.43;;;17.90;49.60;;;;;;5031064;28;20494;-80
2022/05/02 11:24:13;;;;;;;7.95;5.30;;;18.00;49.60;;;;;;5025954;28;20049;-80
2022/05/02 11:26:49;;;;;;;8.20;5.47;;;18.10;49.50;;;;;;5025842;28;20100;-79
2022/05/02 11:30:03;;;;;;;8.95;5.28;;;18.20;49.30;;;;;;5026103;28;20041;-80
2022/05/02 11:32:57;;;;;;;9.27;5.10;;;18.20;49.00;;;;;;5010513;28;20046;-79
2022/05/02 11:38:48;;;;;;;10.10;5.20;;;18.40;48.80;;;;;;5010212;28;20100;-80
2022/05/02 11:41:18;;;;;;;6.50;4.53;;;18.40;48.60;;;;;;4990323;28;20100;-79
2022/05/02 11:43:47;;;;;;;11.80;4.82;;;18.50;48.50;;;;;;4994255;28;20092;-80
2022/05/02 11:46:26;;;;;;;8.57;4.90;;;18.60;48.40;;;;;;5010039;28;20045;-79
2022/05/02 11:49:18;;;;;;;7.72;4.70;;;18.60;48.20;;;;;;5021056;28;20521;-80
2022/05/02 11:51:48;;;;;;;8.93;5.85;;;18.70;47.90;;;;;;5055679;28;20478;-80
2022/05/02 11:54:27;;;;;;;10.10;5.15;;;18.70;47.70;;;;;;5059038;28;20580;-79
2022/05/02 11:57:22;;;;;;;8.90;4.60;;;18.80;47.60;;;;;;5062719;28;20049;-79
2022/05/02 12:00:07;;;;;;;11.45;4.72;;;18.90;47.50;;;;;;5065465;28;20052;-80
2022/05/02 12:02:37;;;;;;;8.10;4.80;;;18.90;47.30;;;;;;5070355;28;20085;-80
2022/05/02 12:05:25;;;;;;;8.07;5.07;;;18.90;47.20;;;;;;5087417;28;20040;-80
2022/05/02 12:07:57;;;;;;;10.75;4.88;;;18.90;47.00;;;;;;5077794;28;20055;-80
2022/05/02 12:10:47;;;;;;;7.60;4.57;;;19.00;47.00;;;;;;5076282;28;20043;-80
2022/05/02 12:13:16;;;;;;;6.68;3.78;;;19.10;46.80;;;;;;5074567;28;20074;-80
2022/05/02 12:15:59;;;;;;;9.98;4.65;;;19.10;46.70;;;;;;5088947;28;20048;-80
2022/05/02 12:18:39;;;;;;;6.82;4.43;;;19.10;46.50;;;;;;5088013;28;20097;-80
2022/05/02 12:21:08;;;;;;;9.50;4.78;;;19.20;46.30;;;;;;5078786;28;20123;-80
2022/05/02 12:23:37;;;;;;;10.02;4.13;;;19.30;46.20;;;;;;5077698;28;20105;-80
2022/05/02 12:26:12;;;;;;;12.27;5.68;;;19.30;46.10;;;;;;5075910;28;20534;-79
2022/05/02 12:28:48;;;;;;;10.05;5.10;;;19.40;46.00;;;;;;5088976;28;20059;-80
2022/05/02 12:31:30;;;;;;;6.53;4.35;;;19.40;45.80;;;;;;5073141;28;20044;-80
2022/05/02 12:34:04;;;;;;;9.38;4.75;;;19.40;45.60;;;;;;5088578;28;20052;-80
2022/05/02 12:36:38;;;;;;;6.78;4.38;;;19.40;45.50;;;;;;5077221;28;20058;-80
2022/05/02 12:39:09;;;;;;;8.60;4.15;;;19.50;45.30;;;;;;5077192;28;20056;-81
2022/05/02 12:41:49;;;;;;;7.40;3.72;;;19.50;45.30;;;;;;5077247;28;20098;-80
2022/05/02 12:44:18;;;;;;;9.32;3.80;;;19.50;45.00;;;;;;5077207;28;20058;-80
2022/05/02 12:46:48;;;;;;;6.47;3.90;;;19.60;44.90;;;;;;5075984;28;20097;-80
2022/05/02 12:49:28;;;;;;;7.78;3.60;;;19.60;44.90;;;;;;5072428;28;20040;-80
2022/05/02 12:51:57;;;;;;;6.22;3.70;;;19.60;44.70;;;;;;5088578;28;20109;-80
2022/05/02 12:54:26;;;;;;;5.75;3.35;;;19.60;44.70;;;;;;5087258;28;20048;-80
2022/05/02 13:05:32;;;;;;;8.00;3.55;;;19.80;44.50;;;;;;5076672;28;20045;-80
2022/05/02 13:08:20;;;;;;;7.90;5.40;;;19.80;44.50;;;;;;5074915;28;20051;-80
2022/05/02 13:10:54;;;;;;;6.10;4.05;;;19.80;44.40;;;;;;5088062;28;20101;-80
2022/05/02 13:13:22;;;;;;;6.20;4.35;;;19.80;44.40;;;;;;5074030;28;20102;-80
2022/05/02 13:15:51;;;;;;;7.57;3.80;;;19.80;44.30;;;;;;5087927;28;20105;-80
2022/05/02 13:18:22;;;;;;;8.30;5.30;;;19.80;44.30;;;;;;5086641;28;20122;-80
2022/05/02 13:21:04;;;;;;;7.68;4.43;;;19.80;44.20;;;;;;5079472;28;20063;-80
2022/05/02 13:23:44;;;;;;;7.50;4.13;;;19.80;44.20;;;;;;5076634;28;20093;-80
2022/05/02 13:26:21;;;;;;;6.72;3.78;;;19.80;44.10;;;;;;5076359;28;20047;-80
2022/05/02 13:29:03;;;;;;;6.32;3.50;;;19.80;44.10;;;;;;5075995;28;20044;-80
2022/05/02 13:31:36;;;;;;;8.80;3.75;;;19.80;44.00;;;;;;5073363;28;20497;-80
2022/05/02 13:34:06;;;;;;;6.63;3.53;;;19.70;44.10;;;;;;5087844;28;20093;-80
2022/05/02 13:36:43;;;;;;;7.75;4.28;;;19.70;44.10;;;;;;5076326;28;20056;-79
2022/05/02 13:39:19;;;;;;;7.28;3.83;;;19.80;44.10;;;;;;5076413;28;20053;-80
2022/05/02 13:42:01;;;;;;;6.40;3.28;;;19.80;44.10;;;;;;5076305;28;20045;-80
2022/05/02 13:44:34;;;;;;;5.90;3.35;;;19.80;44.10;;;;;;5078314;28;20391;-80
2022/05/02 13:47:12;;;;;;;6.73;3.83;;;19.70;44.10;;;;;;5086223;28;20052;-80
2022/05/02 13:49:48;;;;;;;6.70;3.88;;;19.70;44.20;;;;;;5074685;28;20144;-80
2022/05/02 13:52:29;;;;;;;7.05;3.95;;;19.70;44.20;;;;;;5071959;28;20067;-79
2022/05/02 13:55:29;;;;;;;6.25;3.80;;;19.80;44.20;;;;;;5088060;28;20449;-80
2022/05/02 13:58:11;;;;;;;6.57;3.95;;;19.80;44.30;;;;;;5087234;28;20048;-80
2022/05/02 14:01:26;;;;;;;5.15;3.00;;;19.80;44.40;;;;;;5076247;28;20048;-80
2022/05/02 14:03:53;;;;;;;7.32;3.58;;;19.80;44.40;;;;;;5079663;28;20080;-79
2022/05/02 14:06:25;;;;;;;6.90;3.55;;;19.80;44.40;;;;;;5080628;28;20048;-80
2022/05/02 14:08:54;;;;;;;6.95;3.72;;;19.80;44.50;;;;;;5078713;28;20053;-80
2022/05/02 14:11:20;;;;;;;6.57;4.43;;;19.90;44.50;;;;;;5080067;28;20102;-80
2022/05/02 14:14:09;;;;;;;13.30;5.88;;;19.90;44.50;;;;;;5079186;28;20105;-80
2022/05/02 14:16:38;;;;;;;7.03;4.07;;;19.90;44.50;;;;;;5077905;28;20057;-80